Mc Caskill, Arkansas
Current Conditions -  °F | °C
As of 3:56 PM on Monday 24 Nov 2014 (Local Time) from KADF Reporting Station
Clear Clear  
Wind Chill: 58°   Ceiling: Unl
Heat Index: 58°   Visibility: 10mi
Dew Point: 33°   Wind: 12mph
Humidity: 39%   Direction: 240°WSW
Pressure: 29.98"   Gusts: NA
Location:  33.9177°N, 93.6391°W
Report Text: KADF 242156Z AUTO 24010KT 10SM CLR 14/01 A2998 RMK AO2 T01440005 SLP168
Loading
Personal Weather Stations






























Interactive Weather Map New forecast layout! Learn more

10-Day Weather Forecast

Advertisements
Track Severe Weather on mobile